createdAt,value
2018-09-12T00:00:22.079Z,735.27
2018-09-12T00:01:22.552Z,735.28
2018-09-12T00:02:23.020Z,735.21
2018-09-12T00:03:23.490Z,735.27
2018-09-12T00:04:23.964Z,735.17
2018-09-12T00:05:24.433Z,735.21
2018-09-12T00:06:24.903Z,735.23
2018-09-12T00:07:25.374Z,735.19
2018-09-12T00:08:25.846Z,735.19
2018-09-12T00:09:26.318Z,735.13
2018-09-12T00:10:26.791Z,735.19
2018-09-12T00:11:27.262Z,735.19
2018-09-12T00:12:27.733Z,735.24
2018-09-12T00:13:28.205Z,735.25
2018-09-12T00:14:28.677Z,735.17
2018-09-12T00:15:29.149Z,735.22
2018-09-12T00:16:29.624Z,735.19
2018-09-12T00:17:30.095Z,735.19
2018-09-12T00:18:30.569Z,735.20
2018-09-12T00:19:31.042Z,735.07
2018-09-12T00:20:31.515Z,735.14
2018-09-12T00:21:31.992Z,735.15
2018-09-12T00:22:32.464Z,735.11
2018-09-12T00:23:32.936Z,735.15
2018-09-12T00:24:33.411Z,735.10
2018-09-12T00:25:33.888Z,735.07
2018-09-12T00:26:34.360Z,734.99
2018-09-12T00:27:34.835Z,735.07
2018-09-12T00:28:35.313Z,735.06
2018-09-12T00:29:35.784Z,735.16
2018-09-12T00:30:36.258Z,735.11
2018-09-12T00:31:36.730Z,735.06
2018-09-12T00:32:37.206Z,735.07
2018-09-12T00:33:37.681Z,735.15
2018-09-12T00:34:38.155Z,735.04
2018-09-12T00:35:38.630Z,735.02
2018-09-12T00:36:39.104Z,735.14
2018-09-12T00:37:39.600Z,734.99
2018-09-12T00:38:40.089Z,735.03
2018-09-12T00:39:40.527Z,735.11
2018-09-12T00:40:41.000Z,735.09
2018-09-12T00:41:41.474Z,735.12
2018-09-12T00:42:41.954Z,735.08
2018-09-12T00:43:42.422Z,735.14
2018-09-12T00:44:42.896Z,735.09
2018-09-12T00:45:43.368Z,735.13
2018-09-12T00:46:43.843Z,735.11
2018-09-12T00:47:44.313Z,735.13
2018-09-12T00:48:44.787Z,735.07
2018-09-12T00:49:45.260Z,735.13
2018-09-12T00:50:45.734Z,735.07
2018-09-12T00:51:46.204Z,735.08
2018-09-12T00:52:46.679Z,735.16
2018-09-12T00:53:47.153Z,735.11
2018-09-12T00:54:47.621Z,735.15
2018-09-12T00:55:48.098Z,735.10
2018-09-12T00:56:48.567Z,735.05
2018-09-12T00:57:49.037Z,735.07
2018-09-12T00:58:49.518Z,735.06
2018-09-12T00:59:49.981Z,735.06
2018-09-12T01:00:50.452Z,735.03
2018-09-12T01:01:50.922Z,735.13
2018-09-12T01:02:51.396Z,735.05
2018-09-12T01:03:51.868Z,735.00
2018-09-12T01:04:52.338Z,734.93
2018-09-12T01:05:52.813Z,734.90
2018-09-12T01:06:53.276Z,734.89
2018-09-12T01:07:53.747Z,735.07
2018-09-12T01:08:54.217Z,735.03
2018-09-12T01:09:54.692Z,735.04
2018-09-12T01:10:55.158Z,735.04
2018-09-12T01:11:55.628Z,735.04
2018-09-12T01:12:56.100Z,734.98
2018-09-12T01:13:56.568Z,734.96
2018-09-12T01:14:57.041Z,735.02
2018-09-12T01:15:57.510Z,735.01
2018-09-12T01:16:57.980Z,735.05
2018-09-12T01:17:58.450Z,735.08
2018-09-12T01:18:58.921Z,735.01
2018-09-12T01:19:59.393Z,735.04
2018-09-12T01:20:59.863Z,735.02
2018-09-12T01:22:00.336Z,735.03
2018-09-12T01:23:00.805Z,735.02
2018-09-12T01:24:01.276Z,734.98
2018-09-12T01:25:01.745Z,734.93
2018-09-12T01:26:02.217Z,734.99
2018-09-12T01:27:02.690Z,734.94
2018-09-12T01:28:03.160Z,734.95
2018-09-12T01:29:03.633Z,734.93
2018-09-12T01:30:04.105Z,734.90
2018-09-12T01:31:04.579Z,734.91
2018-09-12T01:32:05.049Z,734.91
2018-09-12T01:33:05.524Z,734.93
2018-09-12T01:34:05.994Z,734.86
2018-09-12T01:35:06.471Z,734.92
2018-09-12T01:36:06.941Z,734.81
2018-09-12T01:37:07.413Z,734.80
2018-09-12T01:38:07.892Z,734.87
2018-09-12T01:39:08.362Z,734.87
2018-09-12T01:40:08.834Z,734.75
2018-09-12T01:41:09.307Z,734.77
2018-09-12T01:42:09.789Z,734.83
2018-09-12T01:43:10.461Z,734.73
2018-09-12T01:44:10.730Z,734.71
2018-09-12T01:45:11.205Z,734.80
2018-09-12T01:46:11.679Z,734.75
2018-09-12T01:47:12.153Z,734.61
2018-09-12T01:48:12.633Z,734.77
2018-09-12T01:49:13.103Z,734.71
2018-09-12T01:50:13.577Z,734.71
2018-09-12T01:51:14.050Z,734.76
2018-09-12T01:52:14.523Z,734.75
2018-09-12T01:53:14.997Z,734.78
2018-09-12T01:54:15.472Z,734.62
2018-09-12T01:55:15.946Z,734.71
2018-09-12T01:56:16.420Z,734.78
2018-09-12T01:57:16.895Z,734.77
2018-09-12T01:58:17.370Z,734.83
2018-09-12T01:59:17.840Z,734.84
2018-09-12T02:00:18.311Z,734.85
2018-09-12T02:01:18.783Z,734.83
2018-09-12T02:02:19.257Z,734.80
2018-09-12T02:03:19.931Z,734.83
2018-09-12T02:04:20.201Z,734.79
2018-09-12T02:05:20.675Z,734.79
2018-09-12T02:06:21.147Z,734.78
2018-09-12T02:07:21.622Z,734.78
2018-09-12T02:08:22.091Z,734.79
2018-09-12T02:09:22.563Z,734.75
2018-09-12T02:10:23.034Z,734.71
2018-09-12T02:11:23.505Z,734.72
2018-09-12T02:12:23.978Z,734.75
2018-09-12T02:13:24.450Z,734.66
2018-09-12T02:14:24.921Z,734.71
2018-09-12T02:15:25.390Z,734.73
2018-09-12T02:16:25.861Z,734.69
2018-09-12T02:17:26.332Z,734.67
2018-09-12T02:18:26.806Z,734.70
2018-09-12T02:19:27.275Z,734.71
2018-09-12T02:20:27.752Z,734.72
2018-09-12T02:21:28.216Z,734.71
2018-09-12T02:22:28.686Z,734.71
2018-09-12T02:23:29.157Z,734.59
2018-09-12T02:24:29.625Z,734.65
2018-09-12T02:25:30.097Z,734.63
2018-09-12T02:26:30.567Z,734.67
2018-09-12T02:27:31.036Z,734.63
2018-09-12T02:28:31.510Z,734.57
2018-09-12T02:29:31.979Z,734.60
2018-09-12T02:30:32.447Z,734.61
2018-09-12T02:31:32.924Z,734.66
2018-09-12T02:32:33.392Z,734.57
2018-09-12T02:33:33.860Z,734.60
2018-09-12T02:34:34.330Z,734.57
2018-09-12T02:35:34.803Z,734.58
2018-09-12T02:36:35.270Z,734.59
2018-09-12T02:37:35.745Z,734.57
2018-09-12T02:38:36.213Z,734.58
2018-09-12T02:39:36.687Z,734.54
2018-09-12T02:40:37.156Z,734.53
2018-09-12T02:41:37.632Z,734.51
2018-09-12T02:42:38.101Z,734.53
2018-09-12T02:43:38.573Z,734.55
2018-09-12T02:44:39.387Z,734.54
2018-09-12T02:45:39.518Z,734.55
2018-09-12T02:46:39.992Z,734.55
2018-09-12T02:47:40.695Z,734.49
2018-09-12T02:48:40.937Z,734.53
2018-09-12T02:49:41.411Z,734.54
2018-09-12T02:50:41.885Z,734.46
2018-09-12T02:51:42.368Z,734.49
2018-09-12T02:52:42.832Z,734.49
2018-09-12T02:53:43.307Z,734.43
2018-09-12T02:54:43.780Z,734.44
2018-09-12T02:55:44.256Z,734.42
2018-09-12T02:56:44.729Z,734.43
2018-09-12T02:57:45.201Z,734.46
2018-09-12T02:58:45.677Z,734.44
2018-09-12T02:59:46.151Z,734.47
2018-09-12T03:00:46.626Z,734.52
2018-09-12T03:01:47.100Z,734.53
2018-09-12T03:02:47.575Z,734.48
2018-09-12T03:03:48.048Z,734.51
2018-09-12T03:04:48.521Z,734.45
2018-09-12T03:05:48.994Z,734.47
2018-09-12T03:06:49.469Z,734.50
2018-09-12T03:07:50.028Z,734.50
2018-09-12T03:08:50.415Z,734.50
2018-09-12T03:09:50.894Z,734.47
2018-09-12T03:10:51.362Z,734.43
2018-09-12T03:11:51.835Z,734.46
2018-09-12T03:12:52.309Z,734.44
2018-09-12T03:13:52.782Z,734.46
2018-09-12T03:14:53.256Z,734.39
2018-09-12T03:15:53.728Z,734.39
2018-09-12T03:16:54.203Z,734.39
2018-09-12T03:17:54.675Z,734.39
2018-09-12T03:18:55.146Z,734.44
2018-09-12T03:19:55.620Z,734.40
2018-09-12T03:20:56.220Z,734.35
2018-09-12T03:21:56.559Z,734.34
2018-09-12T03:22:57.033Z,734.41
2018-09-12T03:23:57.503Z,734.37
2018-09-12T03:24:57.974Z,734.37
2018-09-12T03:25:58.447Z,734.34
2018-09-12T03:26:58.918Z,734.36
2018-09-12T03:27:59.389Z,734.39
2018-09-12T03:28:59.861Z,734.37
2018-09-12T03:30:00.332Z,734.29
2018-09-12T03:31:00.801Z,734.27
2018-09-12T03:32:01.281Z,734.34
2018-09-12T03:33:01.741Z,734.33
2018-09-12T03:34:02.220Z,734.32
2018-09-12T03:35:02.683Z,734.33
2018-09-12T03:36:03.157Z,734.31
2018-09-12T03:37:03.624Z,734.34
2018-09-12T03:38:04.094Z,734.30
2018-09-12T03:39:04.564Z,734.36
2018-09-12T03:40:05.037Z,734.29
2018-09-12T03:41:05.505Z,734.31
2018-09-12T03:42:05.976Z,734.28
2018-09-12T03:43:06.451Z,734.27
2018-09-12T03:44:06.918Z,734.25
2018-09-12T03:45:07.385Z,734.27
2018-09-12T03:46:07.858Z,734.29
2018-09-12T03:47:08.329Z,734.29
2018-09-12T03:48:08.875Z,734.29
2018-09-12T03:49:09.274Z,734.32
2018-09-12T03:50:09.742Z,734.30
2018-09-12T03:51:10.214Z,734.27
2018-09-12T03:52:10.686Z,734.21
2018-09-12T03:53:11.158Z,734.27
2018-09-12T03:54:11.629Z,734.26
2018-09-12T03:55:12.101Z,734.25
2018-09-12T03:56:12.573Z,734.23
2018-09-12T03:57:13.046Z,734.22
2018-09-12T03:58:13.519Z,734.22
2018-09-12T03:59:13.991Z,734.17
2018-09-12T04:00:14.465Z,734.18
2018-09-12T04:01:14.935Z,734.23
2018-09-12T04:02:15.411Z,734.24
2018-09-12T04:03:15.885Z,734.26
2018-09-12T04:04:16.359Z,734.24
2018-09-12T04:05:16.832Z,734.22
2018-09-12T04:06:17.305Z,734.23
2018-09-12T04:07:17.782Z,734.17
2018-09-12T04:08:18.255Z,734.16
2018-09-12T04:09:18.726Z,734.15
2018-09-12T04:10:19.202Z,734.16
2018-09-12T04:11:19.676Z,734.17
2018-09-12T04:12:20.150Z,734.18
2018-09-12T04:13:20.625Z,734.14
2018-09-12T04:14:21.098Z,734.17
2018-09-12T04:15:21.576Z,734.10
2018-09-12T04:16:22.048Z,734.15
2018-09-12T04:17:22.523Z,734.22
2018-09-12T04:18:22.996Z,734.20
2018-09-12T04:19:23.469Z,734.16
2018-09-12T04:20:23.943Z,734.14
2018-09-12T04:21:24.416Z,734.12
2018-09-12T04:22:24.888Z,734.14
2018-09-12T04:23:25.366Z,734.09
2018-09-12T04:24:25.890Z,734.11
2018-09-12T04:25:26.309Z,734.05
2018-09-12T04:26:26.791Z,734.09
2018-09-12T04:27:27.259Z,734.04
2018-09-12T04:28:27.727Z,734.07
2018-09-12T04:29:28.200Z,734.05
2018-09-12T04:30:28.673Z,734.04
2018-09-12T04:31:29.144Z,734.14
2018-09-12T04:32:29.619Z,734.08
2018-09-12T04:33:30.091Z,734.11
2018-09-12T04:34:30.766Z,734.11
2018-09-12T04:35:31.033Z,734.13
2018-09-12T04:36:31.507Z,734.04
2018-09-12T04:37:31.976Z,734.07
2018-09-12T04:38:32.450Z,734.10
2018-09-12T04:39:32.919Z,734.09
2018-09-12T04:40:33.389Z,734.11
2018-09-12T04:41:33.861Z,734.10
2018-09-12T04:42:34.358Z,734.08
2018-09-12T04:43:34.802Z,734.04
2018-09-12T04:44:35.274Z,734.07
2018-09-12T04:45:35.745Z,734.09
2018-09-12T04:46:36.213Z,734.14
2018-09-12T04:47:36.686Z,734.11
2018-09-12T04:48:37.424Z,734.07
2018-09-12T04:49:37.623Z,734.14
2018-09-12T04:50:38.094Z,734.10
2018-09-12T04:51:38.565Z,734.09
2018-09-12T04:52:39.039Z,734.16
2018-09-12T04:53:39.510Z,734.11
2018-09-12T04:54:39.979Z,734.12
2018-09-12T04:55:40.448Z,734.12
2018-09-12T04:56:40.919Z,734.12
2018-09-12T04:57:41.386Z,734.13
2018-09-12T04:58:41.858Z,734.15
2018-09-12T04:59:42.361Z,734.13
2018-09-12T05:01:43.273Z,734.16
2018-09-12T05:02:43.743Z,734.16
2018-09-12T05:03:44.214Z,734.13
2018-09-12T05:04:44.685Z,734.13
2018-09-12T05:05:45.162Z,734.11
2018-09-12T05:06:45.630Z,734.17
2018-09-12T05:07:46.101Z,734.13
2018-09-12T05:08:46.573Z,734.14
2018-09-12T05:09:47.045Z,734.16
2018-09-12T05:10:47.519Z,734.14
2018-09-12T05:11:47.990Z,734.12
2018-09-12T05:12:48.465Z,734.16
2018-09-12T05:13:48.938Z,734.18
2018-09-12T05:14:49.410Z,734.09
2018-09-12T05:15:49.887Z,734.05
2018-09-12T05:16:50.361Z,734.07
2018-09-12T05:17:50.832Z,734.08
2018-09-12T05:18:51.307Z,734.06
2018-09-12T05:19:51.781Z,734.09
2018-09-12T05:20:52.257Z,734.10
2018-09-12T05:21:52.728Z,734.07
2018-09-12T05:22:53.205Z,734.12
2018-09-12T05:23:53.678Z,734.16
2018-09-12T05:24:54.153Z,734.14
2018-09-12T05:25:54.624Z,734.06
2018-09-12T05:26:55.099Z,734.12
2018-09-12T05:27:55.575Z,734.12
2018-09-12T05:28:56.050Z,734.17
2018-09-12T05:29:56.522Z,734.19
2018-09-12T05:30:57.000Z,734.10
2018-09-12T05:31:57.472Z,734.19
2018-09-12T05:32:57.957Z,734.20
2018-09-12T05:33:58.419Z,734.16
2018-09-12T05:34:58.891Z,734.18
2018-09-12T05:35:59.367Z,734.13
2018-09-12T05:36:59.841Z,734.17
2018-09-12T05:38:00.313Z,734.07
2018-09-12T05:39:00.786Z,734.15
2018-09-12T05:40:01.262Z,734.24
2018-09-12T05:41:01.733Z,734.15
2018-09-12T05:42:02.205Z,734.20
2018-09-12T05:43:02.679Z,734.19
2018-09-12T05:44:03.154Z,734.17
2018-09-12T05:45:03.624Z,734.23
2018-09-12T05:46:04.096Z,734.15
2018-09-12T05:47:04.567Z,734.11
2018-09-12T05:48:05.039Z,734.16
2018-09-12T05:49:05.568Z,734.08
2018-09-12T05:50:06.018Z,734.11
2018-09-12T05:51:06.454Z,734.16
2018-09-12T05:52:06.926Z,734.14
2018-09-12T05:53:07.399Z,734.10
2018-09-12T05:54:07.869Z,734.11
2018-09-12T05:55:08.341Z,734.11
2018-09-12T05:56:08.811Z,734.10
2018-09-12T05:57:09.287Z,734.11
2018-09-12T05:58:09.757Z,734.11
2018-09-12T05:59:10.226Z,734.12
2018-09-12T06:00:10.697Z,734.15
2018-09-12T06:01:11.167Z,734.12
2018-09-12T06:02:11.636Z,734.13
2018-09-12T06:03:12.106Z,734.14
2018-09-12T06:04:12.578Z,734.12
2018-09-12T06:05:13.049Z,734.13
2018-09-12T06:06:13.523Z,734.13
2018-09-12T06:07:14.218Z,734.14
2018-09-12T06:08:14.460Z,734.16
2018-09-12T06:09:14.931Z,734.15
2018-09-12T06:10:15.402Z,734.16
2018-09-12T06:11:15.873Z,734.10
2018-09-12T06:12:16.344Z,734.05
2018-09-12T06:13:16.815Z,734.09
2018-09-12T06:14:17.414Z,734.15
2018-09-12T06:15:17.759Z,734.10
2018-09-12T06:16:18.229Z,734.09
2018-09-12T06:17:18.701Z,734.10
2018-09-12T06:18:19.172Z,734.07
2018-09-12T06:19:19.646Z,734.05
2018-09-12T06:20:20.115Z,734.11
2018-09-12T06:21:20.589Z,734.06
2018-09-12T06:22:21.060Z,734.07
2018-09-12T06:24:22.010Z,734.06
2018-09-12T06:25:22.529Z,734.10
2018-09-12T06:26:22.956Z,734.10
2018-09-12T06:27:23.425Z,734.08
2018-09-12T06:28:23.901Z,734.03
2018-09-12T06:29:24.376Z,734.12
2018-09-12T06:30:24.847Z,734.03
2018-09-12T06:31:25.322Z,734.05
2018-09-12T06:32:25.801Z,734.09
2018-09-12T06:33:26.274Z,734.08
2018-09-12T06:34:26.746Z,734.05
2018-09-12T06:35:27.222Z,734.04
2018-09-12T06:36:27.697Z,734.10
2018-09-12T06:37:28.172Z,734.08
2018-09-12T06:38:28.699Z,734.09
2018-09-12T06:39:29.123Z,734.07
2018-09-12T06:40:29.597Z,734.05
2018-09-12T06:41:30.071Z,734.03
2018-09-12T06:42:30.545Z,734.09
2018-09-12T06:43:31.020Z,734.04
2018-09-12T06:44:31.544Z,734.06
2018-09-12T06:45:31.969Z,734.03
2018-09-12T06:46:32.445Z,734.00
2018-09-12T06:47:32.921Z,734.07
2018-09-12T06:48:33.394Z,734.06
2018-09-12T06:49:33.869Z,734.07
2018-09-12T06:50:34.342Z,734.00
2018-09-12T06:51:34.815Z,734.05
2018-09-12T06:52:35.291Z,733.99
2018-09-12T06:53:35.765Z,734.02
2018-09-12T06:54:36.282Z,733.96
2018-09-12T06:55:36.713Z,733.97
2018-09-12T06:56:37.186Z,734.02
2018-09-12T06:57:37.660Z,734.08
2018-09-12T06:58:38.134Z,734.01
2018-09-12T06:59:38.608Z,734.00
2018-09-12T07:00:39.098Z,734.02
2018-09-12T07:01:39.558Z,734.04
2018-09-12T07:02:40.030Z,734.04
2018-09-12T07:03:40.499Z,734.05
2018-09-12T07:04:40.974Z,734.04
2018-09-12T07:05:41.447Z,734.13
2018-09-12T07:06:41.920Z,734.05
2018-09-12T07:07:42.410Z,734.07
2018-09-12T07:08:42.870Z,734.06
2018-09-12T07:09:43.341Z,734.07
2018-09-12T07:10:43.810Z,734.07
2018-09-12T07:11:44.286Z,734.03
2018-09-12T07:12:44.755Z,734.07
2018-09-12T07:13:45.227Z,734.15
2018-09-12T07:14:45.700Z,734.12
2018-09-12T07:15:46.174Z,734.14
2018-09-12T07:16:46.644Z,734.10
2018-09-12T07:17:47.115Z,734.07
2018-09-12T07:18:47.588Z,734.12
2018-09-12T07:19:48.060Z,734.11
2018-09-12T07:20:48.534Z,734.13
2018-09-12T07:21:49.004Z,734.13
2018-09-12T07:22:49.477Z,734.08
2018-09-12T07:23:49.947Z,734.13
2018-09-12T07:24:50.435Z,734.14
2018-09-12T07:25:50.893Z,734.13
2018-09-12T07:26:51.362Z,734.12
2018-09-12T07:27:51.841Z,734.16
2018-09-12T07:28:52.309Z,734.12
2018-09-12T07:29:52.778Z,734.14
2018-09-12T07:30:53.247Z,734.10
2018-09-12T07:31:53.922Z,734.11
2018-09-12T07:32:54.190Z,734.12
2018-09-12T07:33:54.668Z,734.15
2018-09-12T07:34:55.136Z,734.15
2018-09-12T07:35:55.604Z,734.15
2018-09-12T07:36:56.078Z,734.17
2018-09-12T07:37:56.547Z,734.16
2018-09-12T07:38:57.020Z,734.24
2018-09-12T07:39:57.490Z,734.21
2018-09-12T07:40:57.961Z,734.18
2018-09-12T07:41:58.434Z,734.18
2018-09-12T07:42:58.948Z,734.23
2018-09-12T07:43:59.375Z,734.15
2018-09-12T07:44:59.846Z,734.23
2018-09-12T07:46:00.319Z,734.19
2018-09-12T07:47:00.789Z,734.21
2018-09-12T07:48:01.265Z,734.24
2018-09-12T07:49:01.755Z,734.22
2018-09-12T07:50:02.204Z,734.24
2018-09-12T07:51:02.877Z,734.24
2018-09-12T07:52:03.148Z,734.23
2018-09-12T07:53:03.619Z,734.23
2018-09-12T07:54:04.091Z,734.20
2018-09-12T07:55:04.614Z,734.25
2018-09-12T07:56:05.096Z,734.29
2018-09-12T07:57:05.510Z,734.25
2018-09-12T07:58:05.983Z,734.28
2018-09-12T07:59:06.456Z,734.25
2018-09-12T08:00:06.943Z,734.33
2018-09-12T08:01:07.455Z,734.32
2018-09-12T08:02:07.879Z,734.36
2018-09-12T08:03:08.353Z,734.37
2018-09-12T08:04:08.830Z,734.38
2018-09-12T08:05:09.372Z,734.35
2018-09-12T08:06:09.834Z,734.36
2018-09-12T08:07:10.259Z,734.40
2018-09-12T08:08:10.737Z,734.37
2018-09-12T08:09:11.215Z,734.43
2018-09-12T08:10:11.694Z,734.44
2018-09-12T08:11:12.173Z,734.42
2018-09-12T08:12:12.717Z,734.41
2018-09-12T08:13:13.133Z,734.44
2018-09-12T08:14:13.614Z,734.40
2018-09-12T08:15:14.093Z,734.41
2018-09-12T08:16:14.576Z,734.46
2018-09-12T08:17:15.107Z,734.44
2018-09-12T08:18:15.544Z,734.41
2018-09-12T08:19:16.023Z,734.42
2018-09-12T08:20:16.506Z,734.44
2018-09-12T08:21:16.989Z,734.40
2018-09-12T08:22:17.473Z,734.43
2018-09-12T08:23:17.954Z,734.46
2018-09-12T08:24:18.438Z,734.42
2018-09-12T08:25:18.920Z,734.47
2018-09-12T08:26:19.522Z,734.42
2018-09-12T08:27:19.887Z,734.47
2018-09-12T08:28:20.364Z,734.44
2018-09-12T08:29:20.845Z,734.40
2018-09-12T08:30:21.327Z,734.43
2018-09-12T08:31:21.810Z,734.44
2018-09-12T08:32:22.285Z,734.42
2018-09-12T08:33:22.767Z,734.42
2018-09-12T08:34:23.240Z,734.44
2018-09-12T08:35:23.716Z,734.44
2018-09-12T08:36:24.256Z,734.48
2018-09-12T08:37:24.672Z,734.40
2018-09-12T08:38:25.148Z,734.49
2018-09-12T08:39:25.623Z,734.38
2018-09-12T08:40:26.100Z,734.47
2018-09-12T08:41:26.575Z,734.48
2018-09-12T08:42:27.065Z,734.46
2018-09-12T08:43:27.525Z,734.47
2018-09-12T08:44:28.003Z,734.40
2018-09-12T08:45:28.475Z,734.37
2018-09-12T08:46:29.001Z,734.40
2018-09-12T08:47:29.511Z,734.43
2018-09-12T08:48:29.979Z,734.40
2018-09-12T08:49:30.461Z,734.38
2018-09-12T08:50:30.876Z,734.41
2018-09-12T08:51:31.408Z,734.43
2018-09-12T08:52:31.830Z,734.37
2018-09-12T08:53:32.324Z,734.41
2018-09-12T08:54:33.019Z,734.42
2018-09-12T08:55:33.278Z,734.42
2018-09-12T08:56:33.781Z,734.40
2018-09-12T08:57:34.182Z,734.35
2018-09-12T08:58:34.837Z,734.40
2018-09-12T08:59:35.147Z,734.42
2018-09-12T09:00:35.630Z,734.47
2018-09-12T09:01:36.127Z,734.39
2018-09-12T09:02:36.600Z,734.43
2018-09-12T09:03:37.241Z,734.41
2018-09-12T09:04:37.734Z,734.42
2018-09-12T09:05:38.143Z,734.45
2018-09-12T09:06:38.554Z,734.51
2018-09-12T09:07:39.118Z,734.46
2018-09-12T09:08:40.037Z,734.48
2018-09-12T09:09:54.281Z,734.44
2018-09-12T09:10:54.589Z,734.43
2018-09-12T09:11:55.063Z,734.46
2018-09-12T09:12:55.563Z,734.47
2018-09-12T09:13:56.019Z,734.51
2018-09-12T09:14:56.521Z,734.49
2018-09-12T09:15:56.983Z,734.53
2018-09-12T09:16:57.527Z,734.55
2018-09-12T09:17:58.226Z,734.52
2018-09-12T09:18:58.384Z,734.58
2018-09-12T09:19:59.197Z,734.53
2018-09-12T09:20:59.332Z,734.53
2018-09-12T09:21:59.772Z,734.56
2018-09-12T09:23:00.228Z,734.59
2018-09-12T09:24:00.725Z,734.57
2018-09-12T09:25:01.198Z,734.59
2018-09-12T09:26:01.653Z,734.62
2018-09-12T09:27:02.175Z,734.62
2018-09-12T09:28:02.613Z,734.63
2018-09-12T09:30:03.586Z,734.60
2018-09-12T09:31:04.040Z,734.59
2018-09-12T09:32:04.497Z,734.57
2018-09-12T09:33:05.180Z,734.59
2018-09-12T09:34:05.472Z,734.63
2018-09-12T09:35:06.204Z,734.60
2018-09-12T09:36:06.386Z,734.59
2018-09-12T09:37:07.072Z,734.53
2018-09-12T09:38:07.322Z,734.62
2018-09-12T09:39:07.805Z,734.59
2018-09-12T09:40:08.280Z,734.60
2018-09-12T09:41:08.864Z,734.66
2018-09-12T09:43:09.699Z,734.59
2018-09-12T09:44:10.199Z,734.58
2018-09-12T09:45:10.862Z,734.51
2018-09-12T09:46:11.142Z,734.54
2018-09-12T09:47:11.691Z,734.48
2018-09-12T09:48:12.237Z,734.47
2018-09-12T09:49:12.538Z,734.52
2018-09-12T09:50:13.010Z,734.46
2018-09-12T09:51:13.499Z,734.50
2018-09-12T09:52:14.040Z,734.51
2018-09-12T09:53:14.467Z,734.49
2018-09-12T09:54:14.893Z,734.46
2018-09-12T09:55:15.379Z,734.52
2018-09-12T09:57:16.304Z,734.52
2018-09-12T09:58:16.826Z,734.50
2018-09-12T09:59:17.274Z,734.53
2018-09-12T10:00:17.951Z,734.49
2018-09-12T10:01:18.263Z,734.55
2018-09-12T10:02:18.734Z,734.53
2018-09-12T10:03:19.185Z,734.50
2018-09-12T10:04:19.633Z,734.51
2018-09-12T10:05:20.096Z,734.56
2018-09-12T10:06:20.588Z,734.48
2018-09-12T10:07:21.115Z,734.51
2018-09-12T10:08:21.529Z,734.48
2018-09-12T10:09:22.043Z,734.46
2018-09-12T10:10:22.704Z,734.49
2018-09-12T10:11:22.959Z,734.47
2018-09-12T10:12:23.641Z,734.48
2018-09-12T10:13:23.924Z,734.47
2018-09-12T10:14:24.363Z,734.48
2018-09-12T10:15:24.856Z,734.46
2018-09-12T10:16:25.410Z,734.48
2018-09-12T10:17:25.793Z,734.45
2018-09-12T10:18:26.274Z,734.48
2018-09-12T10:19:26.735Z,734.45
2018-09-12T10:20:27.221Z,734.49
2018-09-12T10:21:27.714Z,734.51
2018-09-12T10:22:28.149Z,734.46
2018-09-12T10:23:28.635Z,734.46
2018-09-12T10:24:29.335Z,734.47
2018-09-12T10:25:29.590Z,734.55
2018-09-12T10:26:30.272Z,734.47
2018-09-12T10:27:30.580Z,734.48
2018-09-12T10:28:31.031Z,734.46
2018-09-12T10:29:31.469Z,734.52
2018-09-12T10:30:31.960Z,734.47
2018-09-12T10:31:32.425Z,734.48
2018-09-12T10:32:33.005Z,734.53
2018-09-12T10:33:33.383Z,734.51
2018-09-12T10:34:33.891Z,734.48
2018-09-12T10:35:34.332Z,734.47
2018-09-12T10:36:34.822Z,734.54
2018-09-12T10:37:35.526Z,734.55
2018-09-12T10:38:35.762Z,734.49
2018-09-12T10:39:36.199Z,734.52
2018-09-12T10:40:36.719Z,734.47
2018-09-12T10:41:37.172Z,734.47
2018-09-12T10:42:37.749Z,734.52
2018-09-12T10:43:38.370Z,734.49
2018-09-12T10:44:38.604Z,734.42
2018-09-12T10:45:39.079Z,734.49
2018-09-12T10:46:39.567Z,734.49
2018-09-12T10:47:40.070Z,734.50
2018-09-12T10:48:40.512Z,734.54
2018-09-12T10:49:40.967Z,734.47
2018-09-12T10:51:41.931Z,734.47
2018-09-12T10:52:42.503Z,734.45
2018-09-12T10:53:42.892Z,734.52
2018-09-12T10:54:43.357Z,734.46
2018-09-12T10:55:44.008Z,734.40
2018-09-12T10:56:44.501Z,734.50
2018-09-12T10:57:44.752Z,734.45
2018-09-12T10:58:45.249Z,734.47
2018-09-12T10:59:45.734Z,734.49
2018-09-12T11:00:46.208Z,734.49
2018-09-12T11:01:46.686Z,734.46
2018-09-12T11:02:47.198Z,734.46
2018-09-12T11:03:47.824Z,734.47
2018-09-12T11:04:48.119Z,734.39
2018-09-12T11:05:48.551Z,734.44
2018-09-12T11:06:49.069Z,734.36
2018-09-12T11:07:49.581Z,734.47
2018-09-12T11:08:50.128Z,734.37
2018-09-12T11:09:50.498Z,734.38
2018-09-12T11:10:50.954Z,734.41
2018-09-12T11:11:51.824Z,734.42
2018-09-12T11:12:51.878Z,734.32
2018-09-12T11:13:52.411Z,734.34
2018-09-12T11:14:52.868Z,734.28
2018-09-12T11:15:53.660Z,734.32
2018-09-12T11:16:53.821Z,734.30
2018-09-12T11:17:54.310Z,734.30
2018-09-12T11:18:54.747Z,734.26
2018-09-12T11:19:55.225Z,734.32
2018-09-12T11:21:56.192Z,734.30
2018-09-12T11:22:56.710Z,734.28
2018-09-12T11:23:57.214Z,734.27
2018-09-12T11:24:57.613Z,734.28
2018-09-12T11:25:58.087Z,734.27
2018-09-12T11:26:58.568Z,734.21
2018-09-12T11:27:59.092Z,734.27
2018-09-12T11:28:59.716Z,734.25
2018-09-12T11:29:59.966Z,734.26
2018-09-12T11:31:00.517Z,734.23
2018-09-12T11:32:00.941Z,734.27
2018-09-12T11:33:01.719Z,734.26
2018-09-12T11:34:02.104Z,734.29
2018-09-12T11:35:02.577Z,734.32
2018-09-12T11:36:02.873Z,734.30
2018-09-12T11:37:03.357Z,734.28
2018-09-12T11:38:04.001Z,734.26
2018-09-12T11:39:04.273Z,734.26
2018-09-12T11:41:05.227Z,734.26
2018-09-12T11:42:05.707Z,734.23
2018-09-12T11:43:06.241Z,734.27
2018-09-12T11:44:06.672Z,734.26
2018-09-12T11:45:07.134Z,734.24
2018-09-12T11:46:07.617Z,734.23
2018-09-12T11:47:08.111Z,734.27
2018-09-12T11:48:08.960Z,734.29
2018-09-12T11:49:09.103Z,734.20
2018-09-12T11:50:09.504Z,734.20
2018-09-12T11:51:09.990Z,734.24
2018-09-12T11:52:10.470Z,734.21
2018-09-12T11:53:10.989Z,734.22
2018-09-12T11:54:11.424Z,734.21
2018-09-12T11:55:11.961Z,734.16
2018-09-12T11:56:12.403Z,734.24
2018-09-12T11:57:12.844Z,734.25
2018-09-12T11:58:13.383Z,734.24
2018-09-12T11:59:13.809Z,734.22
2018-09-12T12:02:15.252Z,734.17
2018-09-12T12:03:15.787Z,734.21
2018-09-12T12:04:16.181Z,734.17
2018-09-12T12:05:16.683Z,734.18
2018-09-12T12:06:17.145Z,734.19
2018-09-12T12:07:17.593Z,734.19
2018-09-12T12:08:18.108Z,734.19
2018-09-12T12:09:18.569Z,734.18
2018-09-12T12:10:19.248Z,734.23
2018-09-12T12:11:19.526Z,734.12
2018-09-12T12:12:20.059Z,734.17
2018-09-12T12:13:20.555Z,734.14
2018-09-12T12:14:20.948Z,734.16
2018-09-12T12:15:21.644Z,734.16
2018-09-12T12:16:21.947Z,734.12
2018-09-12T12:17:22.392Z,734.10
2018-09-12T12:18:22.870Z,734.08
2018-09-12T12:19:24.318Z,734.12
2018-09-12T12:20:23.829Z,734.08
2018-09-12T12:21:24.357Z,734.06
2018-09-12T12:23:25.309Z,734.00
2018-09-12T12:24:25.713Z,734.02
2018-09-12T12:25:26.241Z,733.93
2018-09-12T12:26:26.877Z,734.00
2018-09-12T12:27:27.237Z,733.96
2018-09-12T12:28:27.644Z,733.87
2018-09-12T12:29:28.120Z,733.89
2018-09-12T12:30:28.615Z,733.96
2018-09-12T12:31:29.077Z,733.90
2018-09-12T12:32:29.541Z,733.86
2018-09-12T12:33:30.007Z,733.89
2018-09-12T12:34:30.564Z,733.91
2018-09-12T12:35:31.095Z,733.86
2018-09-12T12:36:31.473Z,733.87
2018-09-12T12:37:31.939Z,733.83
2018-09-12T12:38:32.489Z,733.85
2018-09-12T12:39:32.915Z,733.91
2018-09-12T12:40:33.394Z,733.85
2018-09-12T12:41:33.857Z,733.80
2018-09-12T12:42:34.339Z,733.83
2018-09-12T12:43:34.861Z,733.80
2018-09-12T12:44:35.298Z,733.77
2018-09-12T12:45:35.799Z,733.76